createdAt,value
2022-08-03T00:01:27.469Z,3.87
2022-08-03T00:03:54.482Z,4.43
2022-08-03T00:06:21.359Z,3.60
2022-08-03T00:08:48.214Z,4.27
2022-08-03T00:11:15.090Z,7.90
2022-08-03T00:13:42.004Z,4.17
2022-08-03T00:16:10.288Z,5.43
2022-08-03T00:18:37.991Z,6.63
2022-08-03T00:21:05.687Z,5.20
2022-08-03T00:23:52.388Z,4.00
2022-08-03T00:26:20.828Z,4.17
2022-08-03T00:28:48.133Z,3.73
2022-08-03T00:31:15.286Z,5.10
2022-08-03T00:33:59.424Z,4.80
2022-08-03T00:36:29.367Z,4.20
2022-08-03T00:38:56.563Z,6.00
2022-08-03T00:41:23.485Z,5.20
2022-08-03T00:43:50.582Z,3.50
2022-08-03T00:46:21.277Z,5.13
2022-08-03T00:48:52.435Z,4.60
2022-08-03T00:51:21.721Z,4.07
2022-08-03T00:53:49.402Z,3.50
2022-08-03T00:56:17.306Z,4.50
2022-08-03T00:58:45.663Z,4.90
2022-08-03T01:01:13.440Z,4.20
2022-08-03T01:03:40.671Z,4.30
2022-08-03T01:06:48.631Z,4.17
2022-08-03T01:09:40.769Z,4.13
2022-08-03T01:12:14.468Z,4.13
2022-08-03T01:15:08.939Z,4.10
2022-08-03T01:17:44.923Z,4.83
2022-08-03T01:20:15.041Z,4.70
2022-08-03T01:22:53.964Z,5.70
2022-08-03T01:25:58.456Z,8.77
2022-08-03T01:28:54.337Z,3.50
2022-08-03T01:31:27.338Z,4.23
2022-08-03T01:34:00.290Z,4.23
2022-08-03T01:36:39.173Z,4.17
2022-08-03T01:39:11.440Z,4.37
2022-08-03T01:41:51.225Z,4.07
2022-08-03T01:44:30.133Z,5.37
2022-08-03T01:47:02.417Z,4.47
2022-08-03T01:49:32.602Z,4.37
2022-08-03T01:52:03.860Z,4.73
2022-08-03T01:54:37.391Z,4.60
2022-08-03T01:57:05.030Z,4.80
2022-08-03T01:59:36.347Z,5.53
2022-08-03T02:02:28.073Z,3.97
2022-08-03T02:04:56.614Z,4.63
2022-08-03T02:07:24.963Z,4.80
2022-08-03T02:09:54.294Z,4.83
2022-08-03T02:12:24.383Z,5.00
2022-08-03T02:14:54.953Z,6.60
2022-08-03T02:17:39.263Z,6.20
2022-08-03T02:20:09.678Z,4.63
2022-08-03T02:22:39.873Z,5.13
2022-08-03T02:25:11.898Z,5.20
2022-08-03T02:28:01.877Z,5.23
2022-08-03T02:30:37.012Z,5.43
2022-08-03T02:33:20.013Z,6.00
2022-08-03T02:35:48.622Z,7.67
2022-08-03T02:38:21.149Z,6.33
2022-08-03T02:40:51.227Z,8.67
2022-08-03T02:43:21.777Z,5.97
2022-08-03T02:45:51.423Z,5.17
2022-08-03T02:48:23.386Z,6.50
2022-08-03T02:50:55.581Z,7.47
2022-08-03T02:53:24.675Z,7.83
2022-08-03T02:55:53.531Z,5.70
2022-08-03T02:58:23.456Z,6.13
2022-08-03T03:00:52.253Z,6.23
2022-08-03T03:03:20.903Z,7.07
2022-08-03T03:05:53.197Z,6.40
2022-08-03T03:08:27.449Z,5.70
2022-08-03T03:11:00.551Z,6.70
2022-08-03T03:13:32.457Z,5.83
2022-08-03T03:16:02.513Z,5.73
2022-08-03T03:18:33.271Z,5.90
2022-08-03T03:21:02.822Z,9.57
2022-08-03T03:23:31.989Z,6.00
2022-08-03T03:26:02.286Z,8.53
2022-08-03T03:28:30.523Z,4.93
2022-08-03T03:30:57.800Z,5.30
2022-08-03T03:33:24.968Z,5.20
2022-08-03T03:35:52.203Z,4.83
2022-08-03T03:38:19.925Z,5.87
2022-08-03T03:40:47.032Z,6.20
2022-08-03T03:43:14.084Z,4.80
2022-08-03T03:45:42.846Z,5.03
2022-08-03T03:48:09.922Z,5.33
2022-08-03T03:50:37.761Z,4.70
2022-08-03T03:53:04.952Z,5.40
2022-08-03T03:55:36.606Z,4.90
2022-08-03T03:58:23.692Z,5.43
2022-08-03T04:00:53.920Z,4.73
2022-08-03T04:03:21.132Z,6.47
2022-08-03T04:06:06.743Z,5.27
2022-08-03T04:08:52.163Z,5.23
2022-08-03T04:11:30.371Z,4.87
2022-08-03T04:14:03.054Z,4.67
2022-08-03T04:16:35.224Z,4.87
2022-08-03T04:19:22.628Z,5.50
2022-08-03T04:21:52.822Z,6.00
2022-08-03T04:24:22.068Z,6.60
2022-08-03T04:26:54.765Z,12.13
2022-08-03T04:29:23.892Z,4.73
2022-08-03T04:31:52.362Z,11.57
2022-08-03T04:34:19.277Z,6.20
2022-08-03T04:36:50.356Z,6.77
2022-08-03T04:39:25.498Z,5.43
2022-08-03T04:42:06.913Z,5.60
2022-08-03T04:44:42.099Z,6.83
2022-08-03T04:47:09.035Z,7.30
2022-08-03T04:49:39.354Z,5.47
2022-08-03T04:52:10.014Z,7.03
2022-08-03T04:54:50.699Z,7.10
2022-08-03T04:57:22.269Z,7.00
2022-08-03T05:00:02.547Z,6.33
2022-08-03T05:02:31.433Z,7.13
2022-08-03T05:04:59.078Z,7.50
2022-08-03T05:07:26.015Z,6.53
2022-08-03T05:09:53.221Z,9.63
2022-08-03T05:12:32.550Z,12.10
2022-08-03T05:15:00.174Z,8.37
2022-08-03T05:17:27.299Z,8.80
2022-08-03T05:19:54.584Z,8.50
2022-08-03T05:22:22.348Z,8.03
2022-08-03T05:24:49.449Z,12.23
2022-08-03T05:27:22.273Z,12.77
2022-08-03T05:29:50.786Z,11.40
2022-08-03T05:32:18.151Z,11.07
2022-08-03T05:34:46.036Z,9.70
2022-08-03T05:37:12.954Z,10.53
2022-08-03T05:39:40.075Z,8.07
2022-08-03T05:42:06.953Z,10.87
2022-08-03T05:44:33.773Z,6.73
2022-08-03T05:47:00.600Z,7.03
2022-08-03T05:49:27.547Z,12.00
2022-08-03T05:52:00.236Z,6.17
2022-08-03T05:54:55.320Z,5.73
2022-08-03T05:57:25.305Z,5.23
2022-08-03T05:59:53.960Z,5.57
2022-08-03T06:02:26.782Z,6.53
2022-08-03T06:04:54.251Z,5.17
2022-08-03T06:07:21.084Z,5.97
2022-08-03T06:10:36.028Z,4.80
2022-08-03T06:12:37.792Z,5.80
2022-08-03T06:15:05.362Z,4.87
2022-08-03T06:17:37.107Z,4.40
2022-08-03T06:20:05.719Z,4.67
2022-08-03T06:22:32.576Z,3.87
2022-08-03T06:24:59.958Z,4.30
2022-08-03T06:27:37.231Z,3.90
2022-08-03T06:30:05.442Z,6.25
2022-08-03T06:32:32.418Z,6.13
2022-08-03T06:34:59.523Z,4.15
2022-08-03T06:37:27.215Z,4.88
2022-08-03T06:39:54.336Z,7.88
2022-08-03T06:42:22.671Z,5.38
2022-08-03T06:44:49.900Z,5.07
2022-08-03T06:47:17.243Z,4.80
2022-08-03T06:49:44.071Z,4.43
2022-08-03T06:52:37.728Z,4.65
2022-08-03T06:55:06.279Z,5.13
2022-08-03T06:57:33.104Z,5.25
2022-08-03T07:00:07.870Z,4.30
2022-08-03T07:02:39.700Z,5.88
2022-08-03T07:05:07.309Z,8.23
2022-08-03T07:07:34.175Z,3.83
2022-08-03T07:10:02.198Z,5.07
2022-08-03T07:12:30.964Z,3.88
2022-08-03T07:15:02.305Z,6.15
2022-08-03T07:17:31.782Z,3.72
2022-08-03T07:19:59.466Z,4.75
2022-08-03T07:22:26.731Z,3.85
2022-08-03T07:24:53.659Z,3.75
2022-08-03T07:27:20.646Z,3.90
2022-08-03T07:29:47.493Z,5.57
2022-08-03T07:32:14.646Z,3.70
2022-08-03T07:34:41.696Z,3.60
2022-08-03T07:37:08.592Z,4.38
2022-08-03T07:39:35.638Z,3.88
2022-08-03T07:42:02.618Z,4.85
2022-08-03T07:44:29.521Z,4.30
2022-08-03T07:46:57.262Z,7.57
2022-08-03T07:49:25.144Z,3.25
2022-08-03T07:52:11.993Z,4.18
2022-08-03T07:54:41.818Z,4.32
2022-08-03T07:57:09.621Z,14.13
2022-08-03T08:00:01.366Z,4.93
2022-08-03T08:02:25.654Z,4.05
2022-08-03T08:04:52.452Z,4.18
2022-08-03T08:07:19.374Z,4.18
2022-08-03T08:09:47.610Z,4.60
2022-08-03T08:12:15.288Z,4.32
2022-08-03T08:14:45.681Z,4.55
2022-08-03T08:17:13.196Z,3.33
2022-08-03T08:19:49.003Z,4.45
2022-08-03T08:22:18.657Z,3.22
2022-08-03T08:24:52.640Z,2.83
2022-08-03T08:27:22.058Z,2.85
2022-08-03T08:29:54.561Z,2.35
2022-08-03T08:32:23.520Z,2.22
2022-08-03T08:34:50.994Z,3.67
2022-08-03T08:37:20.055Z,2.22
2022-08-03T08:39:46.890Z,2.42
2022-08-03T08:42:15.416Z,3.15
2022-08-03T08:44:42.436Z,2.20
2022-08-03T08:47:09.971Z,2.75
2022-08-03T08:49:39.944Z,2.20
2022-08-03T08:52:29.621Z,3.47
2022-08-03T08:55:00.169Z,2.00
2022-08-03T08:57:42.416Z,2.40
2022-08-03T09:00:15.315Z,2.47
2022-08-03T09:02:46.464Z,2.30
2022-08-03T09:05:15.278Z,2.05
2022-08-03T09:07:43.539Z,2.75
2022-08-03T09:10:13.834Z,4.32
2022-08-03T09:12:45.377Z,3.38
2022-08-03T09:15:17.957Z,9.20
2022-08-03T09:17:48.994Z,2.20
2022-08-03T09:20:18.618Z,2.20
2022-08-03T09:22:56.607Z,2.50
2022-08-03T09:25:36.844Z,2.22
2022-08-03T09:28:52.760Z,2.60
2022-08-03T09:31:04.790Z,3.03
2022-08-03T09:33:36.033Z,2.33
2022-08-03T09:36:03.228Z,3.55
2022-08-03T09:38:30.011Z,2.30
2022-08-03T09:41:00.216Z,4.32
2022-08-03T09:43:28.748Z,2.03
2022-08-03T09:46:05.455Z,2.42
2022-08-03T09:48:36.807Z,6.18
2022-08-03T09:51:13.266Z,2.72
2022-08-03T09:53:59.582Z,2.50
2022-08-03T09:56:47.457Z,1.90
2022-08-03T09:59:25.109Z,2.50
2022-08-03T10:01:53.807Z,2.38
2022-08-03T10:04:21.367Z,2.53
2022-08-03T10:07:08.399Z,2.20
2022-08-03T10:09:36.603Z,2.50
2022-08-03T10:12:11.908Z,2.60
2022-08-03T10:14:40.045Z,3.20
2022-08-03T10:17:07.008Z,2.30
2022-08-03T10:19:34.235Z,2.38
2022-08-03T10:22:12.301Z,2.35
2022-08-03T10:24:44.634Z,2.13
2022-08-03T10:27:13.419Z,1.80
2022-08-03T10:29:45.515Z,2.92
2022-08-03T10:32:38.679Z,2.35
2022-08-03T10:35:19.951Z,2.08
2022-08-03T10:38:09.797Z,4.43
2022-08-03T10:40:48.664Z,2.45
2022-08-03T10:43:28.900Z,2.00
2022-08-03T10:45:56.755Z,2.83
2022-08-03T10:48:24.954Z,2.00
2022-08-03T10:50:52.443Z,1.95
2022-08-03T10:53:35.605Z,2.45
2022-08-03T10:56:35.364Z,2.22
2022-08-03T10:59:08.852Z,1.85
2022-08-03T11:02:00.023Z,4.00
2022-08-03T11:04:29.292Z,2.20
2022-08-03T11:07:17.913Z,2.40
2022-08-03T11:09:50.250Z,2.20
2022-08-03T11:12:33.620Z,1.90
2022-08-03T11:15:04.232Z,2.25
2022-08-03T11:17:33.887Z,3.13
2022-08-03T11:20:14.045Z,2.25
2022-08-03T11:22:51.571Z,2.15
2022-08-03T11:25:53.612Z,2.05
2022-08-03T11:28:28.507Z,1.95
2022-08-03T11:30:55.515Z,1.90
2022-08-03T11:33:31.994Z,3.10
2022-08-03T11:36:01.012Z,2.20
2022-08-03T11:38:27.911Z,3.70
2022-08-03T11:40:54.870Z,2.00
2022-08-03T11:43:31.276Z,3.17
2022-08-03T11:46:07.078Z,1.83
2022-08-03T11:48:45.342Z,2.42
2022-08-03T11:51:26.440Z,3.38
2022-08-03T11:54:05.101Z,1.80
2022-08-03T11:56:46.421Z,2.00
2022-08-03T11:59:19.845Z,2.85
2022-08-03T12:01:48.419Z,1.63
2022-08-03T12:04:16.429Z,1.90
2022-08-03T12:07:01.257Z,2.45
2022-08-03T12:09:28.198Z,2.03
2022-08-03T12:12:00.156Z,2.00
2022-08-03T12:14:48.492Z,2.63
2022-08-03T12:17:16.559Z,1.85
2022-08-03T12:19:44.526Z,2.03
2022-08-03T12:22:11.428Z,3.05
2022-08-03T12:24:46.709Z,2.47
2022-08-03T12:27:26.579Z,1.80
2022-08-03T12:29:58.327Z,2.08
2022-08-03T12:32:29.750Z,1.95
2022-08-03T12:35:05.912Z,2.20
2022-08-03T12:37:33.068Z,2.00
2022-08-03T12:40:07.802Z,2.05
2022-08-03T12:42:38.865Z,1.73
2022-08-03T12:45:26.845Z,2.17
2022-08-03T12:48:02.102Z,2.78
2022-08-03T12:50:34.232Z,1.90
2022-08-03T12:53:04.609Z,3.10
2022-08-03T12:55:57.135Z,2.45
2022-08-03T12:58:34.573Z,3.10
2022-08-03T13:01:09.634Z,2.00
2022-08-03T13:03:42.099Z,2.67
2022-08-03T13:06:24.304Z,3.13
2022-08-03T13:09:05.781Z,2.35
2022-08-03T13:11:57.355Z,2.88
2022-08-03T13:14:20.558Z,2.25
2022-08-03T13:16:51.640Z,2.97
2022-08-03T13:19:18.565Z,2.40
2022-08-03T13:22:01.904Z,2.30
2022-08-03T13:24:33.306Z,2.30
2022-08-03T13:27:00.941Z,2.15
2022-08-03T13:29:47.827Z,3.25
2022-08-03T13:32:14.708Z,2.45
2022-08-03T13:34:41.629Z,3.08
2022-08-03T13:37:09.826Z,2.42
2022-08-03T13:39:57.183Z,2.33
2022-08-03T13:42:25.162Z,4.53
2022-08-03T13:44:52.069Z,2.40
2022-08-03T13:47:19.913Z,2.30
2022-08-03T13:49:59.596Z,2.53
2022-08-03T13:52:35.781Z,2.78
2022-08-03T13:55:04.898Z,2.63
2022-08-03T13:58:04.606Z,3.95
2022-08-03T14:00:28.014Z,2.50
2022-08-03T14:03:02.743Z,2.20
2022-08-03T14:05:32.741Z,2.03
2022-08-03T14:08:05.683Z,3.30
2022-08-03T14:10:39.002Z,2.78
2022-08-03T14:13:06.507Z,3.47
2022-08-03T14:15:37.243Z,2.40
2022-08-03T14:18:15.642Z,1.95
2022-08-03T14:20:47.709Z,3.40
2022-08-03T14:23:17.396Z,2.40
2022-08-03T14:25:52.526Z,2.10
2022-08-03T14:28:22.952Z,2.70
2022-08-03T14:30:53.833Z,2.15
2022-08-03T14:33:21.341Z,2.58
2022-08-03T14:35:48.782Z,2.20
2022-08-03T14:38:15.835Z,2.92
2022-08-03T14:40:42.823Z,2.53
2022-08-03T14:43:09.808Z,2.40
2022-08-03T14:45:36.668Z,2.83
2022-08-03T14:50:31.463Z,4.00
2022-08-03T14:50:52.774Z,2.45
2022-08-03T14:53:20.124Z,2.30
2022-08-03T14:55:50.860Z,2.17
2022-08-03T14:58:23.490Z,2.30
2022-08-03T15:00:51.753Z,2.00
2022-08-03T15:03:25.711Z,2.33
2022-08-03T15:05:54.140Z,2.10
2022-08-03T15:08:22.296Z,3.17
2022-08-03T15:10:49.721Z,2.33
2022-08-03T15:13:19.456Z,2.20
2022-08-03T15:15:46.887Z,3.80
2022-08-03T15:18:13.754Z,2.30
2022-08-03T15:20:45.463Z,3.78
2022-08-03T15:23:13.906Z,2.83
2022-08-03T15:26:29.034Z,2.45
2022-08-03T15:28:27.517Z,2.80
2022-08-03T15:30:54.807Z,2.08
2022-08-03T15:33:21.918Z,1.90
2022-08-03T15:35:49.801Z,2.50
2022-08-03T15:38:16.744Z,2.00
2022-08-03T15:40:43.792Z,2.53
2022-08-03T15:43:10.624Z,2.30
2022-08-03T15:45:37.833Z,3.20
2022-08-03T15:48:07.842Z,2.38
2022-08-03T15:50:34.896Z,3.13
2022-08-03T15:53:01.703Z,1.80
2022-08-03T15:55:28.566Z,2.35
2022-08-03T15:59:09.608Z,3.05
2022-08-03T16:00:42.990Z,2.40
2022-08-03T16:03:12.419Z,4.15
2022-08-03T16:05:39.357Z,2.22
2022-08-03T16:08:10.272Z,2.60
2022-08-03T16:10:40.648Z,2.40
2022-08-03T16:13:07.723Z,2.30
2022-08-03T16:15:38.636Z,5.32
2022-08-03T16:18:08.622Z,1.90
2022-08-03T16:20:35.870Z,4.13
2022-08-03T16:23:09.124Z,1.63
2022-08-03T16:25:38.786Z,2.22
2022-08-03T16:28:08.097Z,2.72
2022-08-03T16:30:41.862Z,3.13
2022-08-03T16:33:08.750Z,2.22
2022-08-03T16:35:35.613Z,2.47
2022-08-03T16:38:07.826Z,2.28
2022-08-03T16:40:36.411Z,2.10
2022-08-03T16:43:18.284Z,2.05
2022-08-03T16:45:47.265Z,1.85
2022-08-03T16:48:15.394Z,4.25
2022-08-03T16:50:43.139Z,2.08
2022-08-03T16:53:15.648Z,2.17
2022-08-03T16:55:53.261Z,2.42
2022-08-03T16:58:34.924Z,2.77
2022-08-03T17:01:22.216Z,2.00
2022-08-03T17:04:03.327Z,2.05
2022-08-03T17:06:37.407Z,3.07
2022-08-03T17:09:14.558Z,3.33
2022-08-03T17:11:47.107Z,2.43
2022-08-03T17:14:21.753Z,2.00
2022-08-03T17:16:53.096Z,2.42
2022-08-03T17:19:23.203Z,3.53
2022-08-03T17:21:56.127Z,3.28
2022-08-03T17:24:31.954Z,2.95
2022-08-03T17:27:03.048Z,2.17
2022-08-03T17:29:31.738Z,2.60
2022-08-03T17:31:59.727Z,2.10
2022-08-03T17:34:29.145Z,3.57
2022-08-03T17:37:05.064Z,2.22
2022-08-03T17:39:57.798Z,3.45
2022-08-03T17:42:30.937Z,2.47
2022-08-03T17:45:02.057Z,2.10
2022-08-03T17:47:42.304Z,2.17
2022-08-03T17:50:24.539Z,2.70
2022-08-03T17:53:07.532Z,2.03
2022-08-03T17:55:57.480Z,2.30
2022-08-03T17:58:41.896Z,3.22
2022-08-03T18:02:03.281Z,2.03
2022-08-03T18:04:30.635Z,4.60
2022-08-03T18:07:00.153Z,2.10
2022-08-03T18:10:03.770Z,2.10
2022-08-03T18:12:51.941Z,1.73
2022-08-03T18:15:37.269Z,2.47
2022-08-03T18:18:10.432Z,2.13
2022-08-03T18:20:42.098Z,1.70
2022-08-03T18:23:20.406Z,2.20
2022-08-03T18:25:59.947Z,4.23
2022-08-03T18:28:28.821Z,5.03
2022-08-03T18:30:56.449Z,2.87
2022-08-03T18:34:19.210Z,2.97
2022-08-03T18:36:29.418Z,2.60
2022-08-03T18:39:02.384Z,2.77
2022-08-03T18:41:33.681Z,2.37
2022-08-03T18:47:53.063Z,2.30
2022-08-03T18:50:36.761Z,2.50
2022-08-03T18:54:02.251Z,2.23
2022-08-03T18:56:54.850Z,2.30
2022-08-03T18:59:30.035Z,2.13
2022-08-03T19:02:05.475Z,1.90
2022-08-03T19:04:32.551Z,2.67
2022-08-03T19:07:09.250Z,2.40
2022-08-03T19:09:40.979Z,3.20
2022-08-03T19:12:38.613Z,4.20
2022-08-03T19:15:12.828Z,4.50
2022-08-03T19:17:53.338Z,18.87
2022-08-03T19:20:31.032Z,4.67
2022-08-03T19:22:59.435Z,4.03
2022-08-03T19:25:34.343Z,4.63
2022-08-03T19:28:06.282Z,2.57
2022-08-03T19:30:46.525Z,2.93
2022-08-03T19:33:22.745Z,3.90
2022-08-03T19:35:55.590Z,5.53
2022-08-03T19:41:14.419Z,4.00
2022-08-03T19:43:53.513Z,6.30
2022-08-03T19:46:31.399Z,5.43
2022-08-03T19:49:16.018Z,5.77
2022-08-03T19:52:00.968Z,8.50
2022-08-03T19:54:54.117Z,6.63
2022-08-03T19:57:24.969Z,5.87
2022-08-03T19:59:53.819Z,8.43
2022-08-03T20:02:26.064Z,7.50
2022-08-03T20:04:55.901Z,7.30
2022-08-03T20:07:23.914Z,8.63
2022-08-03T20:09:56.036Z,4.80
2022-08-03T20:12:29.100Z,4.43
2022-08-03T20:14:59.843Z,5.37
2022-08-03T20:17:55.300Z,4.30
2022-08-03T20:20:23.553Z,4.67
2022-08-03T20:22:57.607Z,5.67
2022-08-03T20:25:38.643Z,4.60
2022-08-03T20:28:14.945Z,5.80
2022-08-03T20:30:44.512Z,5.57
2022-08-03T20:33:19.046Z,4.20
2022-08-03T20:35:48.988Z,5.67
2022-08-03T20:38:17.751Z,3.63
2022-08-03T20:40:45.901Z,5.07
2022-08-03T20:43:12.747Z,5.40
2022-08-03T20:46:00.971Z,5.10
2022-08-03T20:48:28.129Z,5.83
2022-08-03T20:50:56.534Z,5.70
2022-08-03T20:53:56.787Z,5.03
2022-08-03T20:56:10.465Z,5.20
2022-08-03T20:58:37.928Z,8.87
2022-08-03T21:01:08.560Z,5.80
2022-08-03T21:03:40.867Z,7.13
2022-08-03T21:06:27.376Z,10.20
2022-08-03T21:09:04.049Z,5.93
2022-08-03T21:11:43.185Z,4.73
2022-08-03T21:13:03.971Z,3.20
2022-08-03T21:13:10.281Z,5.70
2022-08-03T21:14:19.780Z,5.57
2022-08-03T21:16:50.754Z,5.20
2022-08-03T21:19:20.421Z,5.07
2022-08-03T21:21:48.863Z,8.47
2022-08-03T21:24:16.417Z,5.50
2022-08-03T21:26:47.370Z,8.70
2022-08-03T21:29:16.754Z,6.67
2022-08-03T21:31:43.805Z,5.33
2022-08-03T21:34:10.699Z,9.17
2022-08-03T21:36:37.791Z,9.30
2022-08-03T21:39:09.193Z,8.47
2022-08-03T21:41:37.945Z,7.37
2022-08-03T21:44:05.852Z,7.63
2022-08-03T21:46:42.359Z,9.37
2022-08-03T21:50:06.953Z,7.50
2022-08-03T21:52:02.827Z,6.57
2022-08-03T21:54:37.693Z,6.43
2022-08-03T21:57:08.782Z,4.43
2022-08-03T21:59:39.177Z,6.70
2022-08-03T22:02:22.797Z,5.90
2022-08-03T22:04:55.454Z,6.30
2022-08-03T22:07:28.192Z,8.63
2022-08-03T22:09:56.941Z,4.90
2022-08-03T22:12:27.784Z,5.10
2022-08-03T22:15:01.268Z,4.87
2022-08-03T22:17:54.594Z,6.13
2022-08-03T22:20:17.485Z,11.70
2022-08-03T22:22:53.540Z,5.60
2022-08-03T22:25:29.654Z,5.30
2022-08-03T22:27:58.844Z,4.03
2022-08-03T22:30:25.884Z,5.73
2022-08-03T22:32:54.575Z,8.20
2022-08-03T22:35:23.582Z,6.27
2022-08-03T22:37:53.177Z,5.53
2022-08-03T22:40:20.004Z,4.30
2022-08-03T22:42:50.550Z,3.60
2022-08-03T22:46:07.978Z,3.27
2022-08-03T22:48:07.970Z,3.73
2022-08-03T22:50:35.602Z,4.43
2022-08-03T22:53:02.463Z,3.90
2022-08-03T22:55:31.458Z,3.43
2022-08-03T22:57:58.303Z,3.33
2022-08-03T23:00:25.449Z,3.30
2022-08-03T23:02:54.118Z,3.23
2022-08-03T23:06:01.734Z,4.50
2022-08-03T23:08:14.627Z,3.40
2022-08-03T23:10:46.757Z,5.67
2022-08-03T23:13:19.605Z,3.50
2022-08-03T23:15:57.375Z,5.87
2022-08-03T23:18:26.916Z,3.73
2022-08-03T23:20:54.460Z,3.90
2022-08-03T23:23:23.538Z,3.37
2022-08-03T23:25:51.765Z,4.73
2022-08-03T23:28:19.266Z,3.53
2022-08-03T23:30:46.851Z,5.07
2022-08-03T23:33:16.485Z,4.87
2022-08-03T23:36:29.157Z,10.00
2022-08-03T23:38:49.257Z,4.20
2022-08-03T23:41:18.593Z,3.43
2022-08-03T23:43:51.807Z,3.60
2022-08-03T23:46:22.029Z,3.40
2022-08-03T23:48:49.614Z,5.50
2022-08-03T23:51:40.034Z,3.73
2022-08-03T23:54:23.918Z,3.20
2022-08-03T23:56:56.345Z,3.50
2022-08-03T23:59:42.633Z,7.07
